Time;durP1;ratioP1;P1;durP2;ratioP2;P2;SDS_P1;SDS_P2;PMS_P1;PMS_P2;Temp;Humidity;BMP_temperature;BMP_pressure;BME280_temperature;BME280_humidity;BME280_pressure;Samples;Min_cycle;Max_cycle;Signal;HPM_P1;HPM_P2
2022/03/27 00:00:39;;;;;;;29.03;20.27;;;10.70;99.90;;;;;;5050348;28;20299;-52
2022/03/27 00:03:08;;;;;;;27.53;18.53;;;10.70;99.90;;;;;;5049912;28;20228;-52
2022/03/27 00:05:36;;;;;;;27.67;19.33;;;10.80;99.90;;;;;;5037476;28;20210;-53
2022/03/27 00:08:06;;;;;;;31.13;20.50;;;10.80;99.90;;;;;;5032563;28;20253;-52
2022/03/27 00:11:23;;;;;;;28.70;20.20;;;10.80;99.90;;;;;;5053888;28;20245;-52
2022/03/27 00:13:24;;;;;;;30.30;19.10;;;10.80;99.90;;;;;;5053148;28;20590;-52
2022/03/27 00:15:52;;;;;;;28.07;18.80;;;10.80;99.90;;;;;;5054313;28;20586;-52
2022/03/27 00:18:21;;;;;;;29.57;19.33;;;10.80;99.90;;;;;;5053907;28;20780;-52
2022/03/27 00:20:49;;;;;;;31.93;20.17;;;10.80;99.90;;;;;;5053461;28;20665;-52
2022/03/27 00:23:19;;;;;;;30.03;19.93;;;10.80;99.90;;;;;;5053538;28;20217;-52
2022/03/27 00:25:50;;;;;;;25.27;17.93;;;10.80;99.90;;;;;;5054372;28;20259;-52
2022/03/27 00:28:18;;;;;;;30.53;19.33;;;10.80;99.90;;;;;;5053503;28;20773;-52
2022/03/27 00:30:46;;;;;;;27.00;18.60;;;10.80;99.90;;;;;;5053958;28;20221;-52
2022/03/27 00:33:15;;;;;;;27.93;18.93;;;10.80;99.90;;;;;;5053441;28;20674;-52
2022/03/27 00:35:43;;;;;;;27.50;19.23;;;10.80;99.90;;;;;;5052302;28;20213;-52
2022/03/27 00:38:11;;;;;;;29.37;19.07;;;10.80;99.90;;;;;;5039165;28;20699;-52
2022/03/27 00:40:40;;;;;;;27.40;19.10;;;10.80;99.90;;;;;;5033886;28;20210;-52
2022/03/27 00:43:09;;;;;;;29.83;19.77;;;10.80;99.90;;;;;;5033207;28;20605;-52
2022/03/27 00:45:37;;;;;;;28.30;17.93;;;10.70;99.90;;;;;;5033996;28;20206;-52
2022/03/27 00:48:06;;;;;;;27.10;18.67;;;10.70;99.90;;;;;;5033750;28;20226;-52
2022/03/27 00:50:34;;;;;;;27.87;19.13;;;10.60;99.90;;;;;;5045711;28;20602;-52
2022/03/27 00:53:02;;;;;;;28.57;19.83;;;10.60;99.90;;;;;;5052650;28;20259;-52
2022/03/27 00:55:30;;;;;;;29.40;18.90;;;10.50;99.90;;;;;;5053367;28;20213;-52
2022/03/27 00:58:01;;;;;;;28.17;18.43;;;10.50;99.90;;;;;;5053559;28;20272;-52
2022/03/27 01:00:57;;;;;;;26.23;17.60;;;10.40;99.90;;;;;;5052499;28;20255;-51
2022/03/27 01:03:26;;;;;;;29.87;19.43;;;10.30;99.90;;;;;;5043163;28;20232;-52
2022/03/27 01:05:57;;;;;;;29.73;18.70;;;10.30;99.90;;;;;;5052075;28;20670;-52
2022/03/27 01:11:16;;;;;;;29.77;19.10;;;10.20;99.90;;;;;;5053285;28;20702;-52
2022/03/27 01:13:47;;;;;;;28.53;19.53;;;10.10;99.90;;;;;;5052294;28;20637;-52
2022/03/27 01:16:18;;;;;;;31.13;20.27;;;10.10;99.90;;;;;;5053674;28;20212;-52
2022/03/27 01:18:46;;;;;;;27.97;19.63;;;10.10;99.90;;;;;;5053093;28;20233;-52
2022/03/27 01:21:17;;;;;;;30.43;20.17;;;10.00;99.90;;;;;;5052904;28;20728;-51
2022/03/27 01:23:45;;;;;;;30.80;19.87;;;10.00;99.90;;;;;;5052272;28;20209;-52
2022/03/27 01:26:13;;;;;;;28.77;19.93;;;9.90;99.90;;;;;;5053034;28;20202;-52
2022/03/27 01:28:41;;;;;;;30.13;19.67;;;9.90;99.90;;;;;;5052439;28;20234;-52
2022/03/27 01:31:09;;;;;;;33.27;21.33;;;9.80;99.90;;;;;;5052202;28;20286;-52
2022/03/27 01:33:37;;;;;;;32.20;20.03;;;9.80;99.90;;;;;;5052128;28;20636;-51
2022/03/27 01:36:06;;;;;;;29.83;19.60;;;9.70;99.90;;;;;;5051212;28;20582;-52
2022/03/27 01:38:36;;;;;;;31.63;19.83;;;9.70;99.90;;;;;;5052785;28;20229;-51
2022/03/27 01:41:04;;;;;;;29.47;20.27;;;9.60;99.90;;;;;;5052854;28;20206;-52
2022/03/27 01:43:32;;;;;;;32.17;19.67;;;9.60;99.90;;;;;;5052037;28;20284;-52
2022/03/27 01:46:00;;;;;;;31.40;19.67;;;9.50;99.90;;;;;;5052717;28;20209;-52
2022/03/27 01:48:28;;;;;;;31.83;20.07;;;9.50;99.90;;;;;;5052337;28;20271;-52
2022/03/27 01:51:00;;;;;;;31.43;20.17;;;9.40;99.90;;;;;;5052691;28;20259;-52
2022/03/27 01:53:28;;;;;;;30.67;19.73;;;9.40;99.90;;;;;;5051697;28;20255;-52
2022/03/27 01:55:58;;;;;;;29.57;19.63;;;9.30;99.90;;;;;;5052334;28;20210;-51
2022/03/27 01:58:26;;;;;;;30.00;20.17;;;9.20;99.90;;;;;;5051800;28;20708;-53
2022/03/27 02:00:54;;;;;;;33.77;21.83;;;9.20;99.90;;;;;;5052614;28;20206;-51
2022/03/27 02:03:27;;;;;;;30.50;20.37;;;9.10;99.90;;;;;;5051610;28;20277;-52
2022/03/27 02:05:56;;;;;;;30.43;20.50;;;9.00;99.90;;;;;;5052365;28;20209;-52
2022/03/27 02:08:24;;;;;;;29.30;19.83;;;9.00;99.90;;;;;;5052215;28;20276;-52
2022/03/27 02:10:58;;;;;;;32.07;19.63;;;9.00;99.90;;;;;;5052136;28;20228;-51
2022/03/27 02:13:26;;;;;;;29.43;19.10;;;8.90;99.90;;;;;;5050532;28;20210;-52
2022/03/27 02:15:57;;;;;;;30.03;19.77;;;8.90;99.90;;;;;;5032290;28;20260;-52
2022/03/27 02:18:27;;;;;;;27.73;19.27;;;8.80;99.90;;;;;;5031999;28;20230;-51
2022/03/27 02:20:55;;;;;;;28.37;18.80;;;8.80;99.90;;;;;;5032037;28;20272;-52
2022/03/27 02:23:24;;;;;;;33.00;19.47;;;8.80;99.90;;;;;;5042473;28;20205;-52
2022/03/27 02:25:53;;;;;;;28.90;19.40;;;8.80;99.90;;;;;;5052002;28;20266;-52
2022/03/27 02:28:24;;;;;;;32.63;20.27;;;8.70;99.90;;;;;;5052653;28;20302;-50
2022/03/27 02:30:52;;;;;;;31.50;19.60;;;8.70;99.90;;;;;;5052104;28;21023;-52
2022/03/27 02:33:21;;;;;;;32.37;20.67;;;8.70;99.90;;;;;;5051362;28;20641;-52
2022/03/27 02:35:49;;;;;;;31.20;20.47;;;8.60;99.90;;;;;;5049991;28;20205;-52
2022/03/27 02:38:17;;;;;;;34.23;21.13;;;8.60;99.90;;;;;;5051219;28;20236;-52
2022/03/27 02:40:46;;;;;;;33.77;22.13;;;8.50;99.90;;;;;;5051138;28;20620;-52
2022/03/27 02:43:14;;;;;;;33.03;21.37;;;8.50;99.90;;;;;;5050946;28;20267;-52
2022/03/27 02:45:44;;;;;;;32.77;21.20;;;8.50;99.90;;;;;;5051322;28;20279;-51
2022/03/27 02:48:12;;;;;;;35.50;21.73;;;8.50;99.90;;;;;;5051101;28;20229;-52
2022/03/27 02:50:43;;;;;;;30.93;19.63;;;8.40;99.90;;;;;;5050993;28;20209;-52
2022/03/27 02:53:12;;;;;;;29.47;19.10;;;8.40;99.90;;;;;;5050685;28;20702;-52
2022/03/27 02:55:40;;;;;;;35.03;20.83;;;8.30;99.90;;;;;;5051251;28;20198;-52
2022/03/27 02:58:09;;;;;;;31.70;20.30;;;8.30;99.90;;;;;;5051209;28;20228;-52
2022/03/27 03:00:37;;;;;;;29.83;20.30;;;8.30;99.90;;;;;;5050844;28;20601;-51
2022/03/27 03:03:08;;;;;;;30.00;21.07;;;8.20;99.90;;;;;;5050907;28;20212;-53
2022/03/27 03:05:36;;;;;;;31.27;21.30;;;8.20;99.90;;;;;;5051014;28;20605;-52
2022/03/27 03:08:06;;;;;;;30.63;19.73;;;8.20;99.90;;;;;;5051158;28;20221;-52
2022/03/27 03:10:34;;;;;;;32.63;20.70;;;8.10;99.90;;;;;;5050983;28;20634;-52
2022/03/27 03:13:03;;;;;;;28.63;20.47;;;8.10;99.90;;;;;;5050593;28;20260;-52
2022/03/27 03:15:31;;;;;;;31.23;21.17;;;8.00;99.90;;;;;;5051275;28;20259;-52
2022/03/27 03:18:00;;;;;;;32.50;20.90;;;8.00;99.90;;;;;;5050733;28;20225;-52
2022/03/27 03:20:30;;;;;;;35.27;21.40;;;8.00;99.90;;;;;;5039791;28;20671;-53
2022/03/27 03:22:58;;;;;;;34.67;21.37;;;7.90;99.90;;;;;;5030574;28;20630;-52
2022/03/27 03:25:26;;;;;;;35.27;21.13;;;7.90;99.90;;;;;;5030949;28;20226;-52
2022/03/27 03:27:54;;;;;;;31.87;21.43;;;7.90;99.90;;;;;;5034286;28;20247;-52
2022/03/27 03:30:22;;;;;;;30.20;20.10;;;7.80;99.90;;;;;;5050411;28;20212;-52
2022/03/27 03:32:51;;;;;;;36.40;22.00;;;7.80;99.90;;;;;;5050656;28;20207;-52
2022/03/27 03:35:19;;;;;;;32.07;20.90;;;7.80;99.90;;;;;;5049605;28;20210;-52
2022/03/27 03:38:09;;;;;;;31.13;20.47;;;7.70;99.90;;;;;;5051082;28;20315;-51
2022/03/27 03:40:37;;;;;;;36.03;21.67;;;7.70;99.90;;;;;;5050861;28;20216;-51
2022/03/27 03:43:06;;;;;;;31.90;21.40;;;7.70;99.90;;;;;;5050878;28;20244;-51
2022/03/27 03:45:34;;;;;;;34.30;21.47;;;7.70;99.90;;;;;;5054626;28;20255;-51
2022/03/27 03:48:03;;;;;;;34.27;21.63;;;7.70;99.90;;;;;;5054743;28;20274;-52
2022/03/27 03:50:33;;;;;;;33.63;21.13;;;7.70;99.90;;;;;;5054382;28;20625;-52
2022/03/27 03:53:01;;;;;;;33.83;20.67;;;7.70;99.90;;;;;;5054669;28;20279;-51
2022/03/27 03:55:31;;;;;;;35.33;22.47;;;7.70;99.90;;;;;;5054883;28;20197;-51
2022/03/27 03:57:59;;;;;;;32.83;21.00;;;7.70;99.90;;;;;;5055056;28;20225;-51
2022/03/27 04:00:28;;;;;;;35.07;21.27;;;7.60;99.90;;;;;;5054286;28;20198;-50
2022/03/27 04:02:56;;;;;;;35.53;21.20;;;7.60;99.90;;;;;;5052711;28;20213;-51
2022/03/27 04:05:24;;;;;;;30.40;21.23;;;7.60;99.90;;;;;;5052731;28;20309;-52
2022/03/27 04:07:52;;;;;;;35.57;22.30;;;7.60;99.90;;;;;;5053065;28;20287;-51
2022/03/27 04:10:21;;;;;;;34.57;21.00;;;7.60;99.90;;;;;;5052888;28;20205;-51
2022/03/27 04:12:50;;;;;;;29.73;20.20;;;7.50;99.90;;;;;;5052598;28;20209;-51
2022/03/27 04:15:19;;;;;;;30.57;19.97;;;7.50;99.90;;;;;;5053307;28;20278;-50
2022/03/27 04:17:48;;;;;;;33.90;20.30;;;7.40;99.90;;;;;;5054355;28;20275;-51
2022/03/27 04:20:17;;;;;;;30.50;20.47;;;7.40;99.90;;;;;;5054573;28;20205;-50
2022/03/27 04:22:46;;;;;;;27.53;19.97;;;7.30;99.90;;;;;;5054070;28;20271;-51
2022/03/27 04:25:15;;;;;;;31.03;19.73;;;7.30;99.90;;;;;;5054172;28;20232;-51
2022/03/27 04:27:44;;;;;;;29.67;18.27;;;7.30;99.90;;;;;;5054479;28;20233;-51
2022/03/27 04:30:13;;;;;;;32.87;20.07;;;7.30;99.90;;;;;;5054243;28;20206;-51
2022/03/27 04:32:42;;;;;;;29.97;19.20;;;7.20;99.90;;;;;;5054071;28;20194;-51
2022/03/27 04:35:11;;;;;;;32.80;21.10;;;7.10;99.90;;;;;;5052818;28;20209;-51
2022/03/27 04:37:40;;;;;;;31.00;19.93;;;7.10;99.90;;;;;;5054265;28;20271;-52
2022/03/27 04:40:10;;;;;;;28.30;19.17;;;7.00;99.90;;;;;;5054015;28;20251;-51
2022/03/27 04:42:38;;;;;;;28.03;19.60;;;7.00;99.90;;;;;;5053979;28;20216;-51
2022/03/27 04:45:07;;;;;;;29.27;19.40;;;6.90;99.90;;;;;;5053681;28;20225;-51
2022/03/27 04:47:36;;;;;;;28.40;18.60;;;6.90;99.90;;;;;;5053751;28;20224;-51
2022/03/27 04:50:06;;;;;;;28.07;17.87;;;6.90;99.90;;;;;;5054065;28;20209;-51
2022/03/27 04:52:34;;;;;;;27.97;17.83;;;6.90;99.90;;;;;;5053185;28;20205;-52
2022/03/27 04:55:02;;;;;;;32.57;19.70;;;6.90;99.90;;;;;;5053342;28;20331;-51
2022/03/27 04:57:33;;;;;;;29.67;18.87;;;6.90;99.90;;;;;;5053688;28;20210;-51
2022/03/27 05:00:02;;;;;;;27.10;18.50;;;6.90;99.90;;;;;;5054086;28;20275;-51
2022/03/27 05:02:30;;;;;;;29.33;17.37;;;6.80;99.90;;;;;;5053219;28;20582;-51
2022/03/27 05:05:00;;;;;;;25.73;17.70;;;6.80;99.90;;;;;;5053425;28;20699;-51
2022/03/27 05:07:28;;;;;;;27.77;18.90;;;6.80;99.90;;;;;;5053701;28;20192;-51
2022/03/27 05:09:56;;;;;;;25.00;18.00;;;6.70;99.90;;;;;;5053174;28;20204;-51
2022/03/27 05:12:24;;;;;;;28.53;18.53;;;6.70;99.90;;;;;;5053261;28;20209;-51
2022/03/27 05:14:52;;;;;;;27.07;17.63;;;6.70;99.90;;;;;;5053502;28;20270;-51
2022/03/27 05:17:21;;;;;;;30.73;20.60;;;6.70;99.90;;;;;;5053643;28;20205;-50
2022/03/27 05:19:50;;;;;;;27.63;18.20;;;6.70;99.90;;;;;;5053072;28;20282;-51
2022/03/27 05:22:19;;;;;;;25.77;17.60;;;6.70;99.90;;;;;;5050823;28;20232;-50
2022/03/27 05:24:47;;;;;;;28.27;18.07;;;6.70;99.90;;;;;;5034723;28;20226;-50
2022/03/27 05:27:18;;;;;;;27.93;17.97;;;6.70;99.90;;;;;;5033632;28;20706;-51
2022/03/27 05:29:46;;;;;;;33.23;18.77;;;6.80;99.90;;;;;;5048387;28;20655;-52
2022/03/27 05:32:14;;;;;;;26.53;17.97;;;6.70;99.90;;;;;;5051714;28;20266;-51
2022/03/27 05:34:42;;;;;;;26.33;17.53;;;6.70;99.90;;;;;;5049083;28;20206;-52
2022/03/27 05:37:10;;;;;;;28.17;19.00;;;6.70;99.90;;;;;;5049979;28;20261;-51
2022/03/27 05:39:40;;;;;;;29.97;19.07;;;6.80;99.90;;;;;;5051467;28;20278;-51
2022/03/27 05:42:09;;;;;;;33.53;19.90;;;6.80;99.90;;;;;;5051387;28;20673;-52
2022/03/27 05:44:37;;;;;;;34.53;21.63;;;6.90;99.90;;;;;;5045481;28;20213;-52
2022/03/27 05:47:05;;;;;;;30.67;21.67;;;6.90;99.90;;;;;;5049880;28;20360;-52
2022/03/27 05:49:33;;;;;;;32.17;19.73;;;7.00;99.90;;;;;;5051340;28;20290;-52
2022/03/27 05:52:02;;;;;;;29.53;19.30;;;7.10;99.90;;;;;;5051084;28;20206;-52
2022/03/27 05:54:30;;;;;;;29.07;18.43;;;7.20;99.90;;;;;;5051629;28;20245;-52
2022/03/27 05:56:59;;;;;;;30.20;19.23;;;7.30;99.90;;;;;;5050968;28;20207;-51
2022/03/27 05:59:27;;;;;;;31.30;20.63;;;7.40;99.90;;;;;;5050679;28;20229;-51
2022/03/27 06:01:56;;;;;;;25.33;18.60;;;7.50;99.90;;;;;;5051852;28;20205;-51
2022/03/27 06:04:24;;;;;;;28.47;18.50;;;7.50;99.90;;;;;;5051199;28;20202;-52
2022/03/27 06:06:52;;;;;;;26.53;18.13;;;7.50;99.90;;;;;;5050223;28;20295;-51
2022/03/27 06:09:22;;;;;;;26.43;17.93;;;7.50;99.90;;;;;;5049226;28;20233;-52
2022/03/27 06:11:50;;;;;;;30.37;17.77;;;7.50;99.90;;;;;;5050794;28;20260;-51
2022/03/27 06:14:20;;;;;;;29.03;18.73;;;7.60;99.90;;;;;;5048661;28;20288;-51
2022/03/27 06:16:48;;;;;;;25.77;18.17;;;7.60;99.90;;;;;;5050987;28;20236;-52
2022/03/27 06:19:17;;;;;;;27.50;17.90;;;7.60;99.90;;;;;;5049847;28;20225;-51
2022/03/27 06:21:45;;;;;;;28.93;20.63;;;7.60;99.90;;;;;;5050603;28;20209;-51
2022/03/27 06:24:13;;;;;;;26.90;19.50;;;7.70;99.90;;;;;;5051078;28;20202;-52
2022/03/27 06:26:42;;;;;;;28.20;20.43;;;7.80;99.90;;;;;;5048783;28;20267;-52
2022/03/27 06:29:10;;;;;;;29.40;19.37;;;7.90;99.90;;;;;;5050302;28;20779;-52
2022/03/27 06:31:40;;;;;;;29.20;20.90;;;8.20;99.90;;;;;;5047408;28;20213;-51
2022/03/27 06:34:09;;;;;;;30.37;22.30;;;8.50;99.90;;;;;;5047770;28;20202;-51
2022/03/27 06:36:37;;;;;;;29.17;19.80;;;8.70;99.90;;;;;;5047797;28;20233;-52
2022/03/27 06:39:06;;;;;;;24.17;17.37;;;8.80;99.90;;;;;;5050882;28;20275;-52
2022/03/27 06:41:34;;;;;;;23.60;16.67;;;9.20;99.90;;;;;;5050197;28;20205;-51
2022/03/27 06:44:02;;;;;;;24.87;16.80;;;9.40;99.90;;;;;;5050030;28;20210;-52
2022/03/27 06:46:31;;;;;;;25.37;18.63;;;9.60;99.90;;;;;;5047049;28;20253;-51
2022/03/27 06:49:00;;;;;;;25.13;17.67;;;9.90;99.90;;;;;;5050812;28;20221;-52
2022/03/27 06:51:28;;;;;;;24.30;18.70;;;10.00;99.90;;;;;;5050673;28;20214;-52
2022/03/27 06:53:56;;;;;;;22.67;16.00;;;10.20;99.90;;;;;;5049781;28;20671;-51
2022/03/27 06:56:25;;;;;;;20.53;15.10;;;10.80;99.90;;;;;;5049194;28;20205;-52
2022/03/27 06:58:53;;;;;;;19.30;14.80;;;11.30;99.90;;;;;;5048803;28;20249;-52
2022/03/27 07:04:10;;;;;;;20.50;16.33;;;12.00;99.90;;;;;;5048826;28;20268;-52
2022/03/27 07:06:42;;;;;;;19.83;15.43;;;12.30;99.90;;;;;;5049174;28;20272;-52
2022/03/27 07:09:12;;;;;;;19.50;15.57;;;12.50;99.90;;;;;;5049361;28;20221;-52
2022/03/27 07:11:41;;;;;;;21.43;16.33;;;12.40;99.90;;;;;;5039042;28;20210;-52
2022/03/27 07:14:12;;;;;;;19.23;16.03;;;12.20;99.90;;;;;;5030849;28;20678;-52
2022/03/27 07:16:40;;;;;;;19.93;16.07;;;12.10;99.90;;;;;;5031019;28;20206;-52
2022/03/27 07:19:11;;;;;;;21.10;16.63;;;12.10;99.90;;;;;;5029376;28;20230;-52
2022/03/27 07:21:39;;;;;;;20.90;17.13;;;12.10;99.90;;;;;;5031282;28;20236;-52
2022/03/27 07:24:07;;;;;;;21.90;17.37;;;12.10;99.90;;;;;;5048487;28;20201;-51
2022/03/27 07:26:36;;;;;;;22.33;17.87;;;12.10;99.90;;;;;;5050794;28;20747;-51
2022/03/27 07:29:05;;;;;;;24.23;16.97;;;12.10;99.90;;;;;;5046339;28;20229;-51
2022/03/27 07:31:33;;;;;;;25.70;17.43;;;12.10;99.90;;;;;;5045126;28;20213;-51
2022/03/27 07:34:02;;;;;;;24.43;18.23;;;12.20;99.90;;;;;;5041334;28;20260;-51
2022/03/27 07:36:34;;;;;;;19.67;16.87;;;12.30;99.90;;;;;;5043267;28;20375;-51
2022/03/27 07:39:02;;;;;;;23.43;17.60;;;12.30;99.90;;;;;;5047526;28;20263;-51
2022/03/27 07:41:30;;;;;;;24.57;18.40;;;12.40;99.90;;;;;;5043193;28;20733;-51
2022/03/27 07:43:58;;;;;;;21.20;17.60;;;12.50;99.90;;;;;;5047205;28;20232;-51
2022/03/27 07:46:26;;;;;;;25.70;18.43;;;12.60;99.90;;;;;;5047166;28;20682;-51
2022/03/27 07:48:55;;;;;;;21.50;16.33;;;12.70;99.90;;;;;;5048890;28;20690;-52
2022/03/27 07:51:23;;;;;;;22.93;17.73;;;12.90;99.90;;;;;;5041490;28;20299;-51
2022/03/27 07:53:53;;;;;;;23.50;18.23;;;13.10;99.90;;;;;;5049056;28;20209;-51
2022/03/27 07:56:21;;;;;;;21.97;17.87;;;13.80;99.90;;;;;;5047025;28;20201;-52
2022/03/27 07:58:49;;;;;;;22.67;17.83;;;14.30;99.90;;;;;;5044321;28;20768;-51
2022/03/27 08:01:18;;;;;;;22.85;18.65;;;14.80;99.90;;;;;;5047149;28;20206;-51
2022/03/27 08:03:46;;;;;;;20.85;17.65;;;14.90;99.90;;;;;;5047345;28;20951;-52
2022/03/27 08:06:14;;;;;;;20.20;16.77;;;14.80;99.90;;;;;;5044738;28;20201;-52
2022/03/27 08:08:42;;;;;;;20.27;16.70;;;14.70;99.90;;;;;;5056199;28;20255;-52
2022/03/27 08:11:12;;;;;;;19.63;16.83;;;14.70;99.90;;;;;;5049709;28;20210;-51
2022/03/27 08:13:41;;;;;;;23.08;17.30;;;14.60;99.90;;;;;;5045935;28;20206;-51
2022/03/27 08:16:09;;;;;;;18.13;15.23;;;14.60;99.90;;;;;;5050251;28;20555;-50
2022/03/27 08:18:37;;;;;;;17.77;15.17;;;14.60;99.90;;;;;;5048235;28;20271;-50
2022/03/27 08:21:05;;;;;;;17.73;14.30;;;14.70;99.90;;;;;;5050396;28;20232;-50
2022/03/27 08:23:33;;;;;;;17.85;14.65;;;14.80;99.90;;;;;;5042002;28;20210;-52
2022/03/27 08:28:48;;;;;;;17.38;13.23;;;14.90;99.90;;;;;;5049191;28;20237;-52
2022/03/27 08:31:16;;;;;;;16.17;12.50;;;15.00;99.90;;;;;;5040722;28;20218;-52
2022/03/27 08:33:46;;;;;;;16.08;12.70;;;15.00;99.90;;;;;;5050807;28;20218;-52
2022/03/27 08:36:14;;;;;;;17.90;13.98;;;15.10;99.90;;;;;;5052947;28;20213;-52
2022/03/27 08:38:43;;;;;;;14.82;13.13;;;15.10;99.90;;;;;;5053491;28;20225;-52
2022/03/27 08:41:12;;;;;;;18.88;13.63;;;15.10;99.90;;;;;;5053546;28;20205;-52
2022/03/27 08:43:40;;;;;;;16.80;13.50;;;15.30;99.90;;;;;;5052499;28;20214;-51
2022/03/27 08:46:11;;;;;;;16.75;14.00;;;15.40;99.90;;;;;;5053680;28;20692;-51
2022/03/27 08:48:43;;;;;;;16.40;14.02;;;15.50;99.90;;;;;;5049563;28;20290;-51
2022/03/27 08:51:28;;;;;;;15.48;13.07;;;15.50;99.90;;;;;;5052958;28;20589;-51
2022/03/27 08:54:02;;;;;;;16.75;13.30;;;15.80;99.90;;;;;;5052090;28;20206;-52
2022/03/27 08:56:32;;;;;;;14.10;12.05;;;16.00;99.90;;;;;;5052868;28;20635;-51
2022/03/27 08:59:05;;;;;;;13.48;12.07;;;15.90;99.90;;;;;;5053167;28;20321;-51
2022/03/27 09:01:35;;;;;;;14.60;12.95;;;15.90;99.90;;;;;;5052547;28;20205;-51
2022/03/27 09:04:04;;;;;;;14.15;12.07;;;16.10;99.90;;;;;;5052563;28;20215;-52
2022/03/27 09:06:34;;;;;;;12.88;11.43;;;16.20;99.90;;;;;;5052708;28;20206;-51
2022/03/27 09:09:02;;;;;;;13.57;10.52;;;16.40;99.90;;;;;;5052937;28;20233;-51
2022/03/27 09:11:32;;;;;;;16.30;11.48;;;16.30;99.90;;;;;;5052821;28;20214;-51
2022/03/27 09:14:01;;;;;;;13.60;11.32;;;16.20;99.90;;;;;;5051768;28;21102;-51
2022/03/27 09:16:29;;;;;;;14.65;11.98;;;16.30;99.90;;;;;;5052441;28;20205;-50
2022/03/27 09:19:01;;;;;;;13.75;11.73;;;16.10;99.90;;;;;;5052866;28;20237;-52
2022/03/27 09:21:29;;;;;;;14.60;11.40;;;15.90;99.90;;;;;;5048668;28;20205;-51
2022/03/27 09:23:59;;;;;;;14.15;11.95;;;15.80;99.90;;;;;;5051276;28;20206;-51
2022/03/27 09:26:28;;;;;;;14.40;12.05;;;15.80;99.90;;;;;;5052314;28;20218;-51
2022/03/27 09:29:09;;;;;;;13.77;11.88;;;15.80;99.90;;;;;;5052248;28;20299;-51
2022/03/27 09:31:37;;;;;;;13.80;12.35;;;15.70;99.90;;;;;;5052240;28;20226;-51
2022/03/27 09:34:07;;;;;;;13.63;11.45;;;15.60;99.90;;;;;;5050477;28;20217;-52
2022/03/27 09:36:39;;;;;;;14.45;10.93;;;15.60;99.90;;;;;;5048254;28;20212;-51
2022/03/27 09:39:11;;;;;;;15.25;11.45;;;15.50;99.90;;;;;;5048550;28;20230;-51
2022/03/27 09:41:43;;;;;;;14.07;11.60;;;15.50;99.90;;;;;;5051681;28;20253;-52
2022/03/27 09:44:13;;;;;;;13.07;10.65;;;15.60;99.90;;;;;;5051604;28;20282;-52
2022/03/27 09:46:54;;;;;;;12.40;10.70;;;15.60;99.90;;;;;;5051856;28;20206;-52
2022/03/27 09:49:37;;;;;;;12.27;10.98;;;15.70;99.90;;;;;;5051747;28;20241;-52
2022/03/27 09:52:09;;;;;;;14.57;10.75;;;15.70;99.90;;;;;;5051506;28;20654;-51
2022/03/27 09:54:55;;;;;;;12.18;10.82;;;15.80;99.90;;;;;;5051740;28;20213;-52
2022/03/27 09:57:25;;;;;;;15.55;12.32;;;15.90;99.90;;;;;;5046719;28;20209;-52
2022/03/27 09:59:56;;;;;;;32.80;18.42;;;16.00;99.90;;;;;;5051537;28;20217;-51
2022/03/27 10:02:27;;;;;;;17.67;12.73;;;16.00;99.90;;;;;;5050946;28;20214;-52
2022/03/27 10:05:02;;;;;;;11.98;10.68;;;16.00;99.90;;;;;;5044870;28;20206;-52
2022/03/27 10:07:36;;;;;;;15.82;11.95;;;16.10;99.90;;;;;;5051083;28;20228;-52
2022/03/27 10:10:05;;;;;;;14.40;12.55;;;16.10;99.90;;;;;;5042472;28;20204;-51
2022/03/27 10:12:37;;;;;;;13.93;11.85;;;16.10;99.90;;;;;;5048503;28;20251;-52
2022/03/27 10:15:09;;;;;;;13.52;11.50;;;16.10;99.90;;;;;;5049349;28;20231;-51
2022/03/27 10:17:38;;;;;;;13.88;11.73;;;16.00;99.90;;;;;;5048916;28;20206;-51
2022/03/27 10:20:10;;;;;;;14.93;11.30;;;16.00;99.90;;;;;;5048412;28;20217;-52
2022/03/27 10:22:42;;;;;;;15.07;12.48;;;16.00;99.90;;;;;;5049293;28;20695;-52
2022/03/27 10:25:12;;;;;;;16.52;12.77;;;15.90;99.90;;;;;;5050816;28;20290;-55
2022/03/27 10:27:43;;;;;;;13.68;11.48;;;15.90;99.90;;;;;;5049301;28;20213;-52
2022/03/27 10:30:12;;;;;;;14.57;12.00;;;16.00;99.90;;;;;;5048026;28;20245;-52
2022/03/27 10:32:42;;;;;;;13.95;11.35;;;16.00;99.90;;;;;;5042603;28;20201;-52
2022/03/27 10:35:30;;;;;;;12.35;11.05;;;16.00;99.90;;;;;;5042108;28;20205;-52
2022/03/27 10:38:07;;;;;;;14.65;10.82;;;16.10;99.90;;;;;;5047398;28;20226;-52
2022/03/27 10:40:55;;;;;;;13.32;10.48;;;16.30;99.90;;;;;;5047491;28;20213;-51
2022/03/27 10:43:31;;;;;;;12.30;10.35;;;16.50;99.90;;;;;;5049677;28;20287;-52
2022/03/27 10:46:17;;;;;;;13.00;11.13;;;16.50;99.90;;;;;;5050897;28;20267;-52
2022/03/27 10:48:50;;;;;;;12.20;10.43;;;16.50;99.90;;;;;;5050813;28;20278;-51
2022/03/27 10:51:37;;;;;;;15.18;10.68;;;16.60;99.90;;;;;;5050980;28;20275;-51
2022/03/27 10:54:07;;;;;;;12.73;10.38;;;16.70;99.90;;;;;;5049424;28;20245;-51
2022/03/27 10:56:37;;;;;;;12.90;10.38;;;16.70;99.90;;;;;;5050949;28;20213;-52
2022/03/27 10:59:11;;;;;;;12.50;10.32;;;16.60;99.90;;;;;;5050842;28;20213;-52
2022/03/27 11:01:42;;;;;;;12.77;10.13;;;16.50;99.90;;;;;;5051291;28;20266;-51
2022/03/27 11:04:12;;;;;;;10.60;9.50;;;16.50;99.90;;;;;;5050084;28;20808;-52
2022/03/27 11:06:43;;;;;;;11.60;10.40;;;16.50;99.90;;;;;;5050972;28;20609;-51
2022/03/27 11:09:30;;;;;;;11.23;9.57;;;16.50;99.90;;;;;;5051072;28;20230;-52
2022/03/27 11:11:58;;;;;;;10.60;9.48;;;16.50;99.90;;;;;;5050728;28;20193;-52
2022/03/27 11:15:00;;;;;;;9.07;8.18;;;16.50;99.90;;;;;;5050229;28;20259;-52
2022/03/27 11:17:40;;;;;;;10.38;8.57;;;16.60;99.90;;;;;;5050538;28;20209;-52
2022/03/27 11:20:10;;;;;;;9.50;8.50;;;16.50;99.90;;;;;;5051077;28;20209;-51
2022/03/27 11:22:59;;;;;;;10.20;8.93;;;16.60;99.90;;;;;;5049887;28;20209;-52
2022/03/27 11:25:33;;;;;;;9.60;8.57;;;16.50;99.90;;;;;;5051115;28;20814;-52
2022/03/27 11:28:12;;;;;;;10.85;9.05;;;16.50;99.90;;;;;;5049393;28;20220;-52
2022/03/27 11:30:56;;;;;;;10.68;8.88;;;16.50;99.90;;;;;;5049386;28;20205;-52
2022/03/27 11:33:26;;;;;;;10.43;8.63;;;16.60;99.90;;;;;;5049824;28;20205;-52
2022/03/27 11:36:22;;;;;;;12.45;9.38;;;16.80;99.90;;;;;;5048920;28;20255;-52
2022/03/27 11:39:02;;;;;;;11.90;9.15;;;16.70;99.90;;;;;;5049951;28;20279;-52
2022/03/27 11:41:34;;;;;;;10.75;8.82;;;16.80;99.90;;;;;;5049410;28;20900;-52
2022/03/27 11:44:23;;;;;;;11.85;8.85;;;16.90;99.90;;;;;;5049429;28;20197;-52
2022/03/27 11:46:53;;;;;;;11.88;8.98;;;16.90;99.90;;;;;;5046735;28;20206;-52
2022/03/27 11:49:23;;;;;;;10.18;9.15;;;17.00;99.90;;;;;;5033778;28;20222;-52
2022/03/27 11:52:05;;;;;;;13.17;10.00;;;17.10;99.90;;;;;;5027950;28;20460;-52
2022/03/27 11:54:35;;;;;;;11.20;9.55;;;17.20;99.90;;;;;;5036592;28;20205;-52
2022/03/27 11:57:04;;;;;;;10.98;9.88;;;17.00;99.90;;;;;;5047767;28;20283;-52
2022/03/27 11:59:43;;;;;;;12.23;9.73;;;17.00;99.90;;;;;;5047589;28;20294;-52
2022/03/27 12:02:11;;;;;;;11.45;9.45;;;17.00;99.90;;;;;;5047824;28;20209;-52
2022/03/27 12:04:52;;;;;;;12.48;10.50;;;17.20;99.90;;;;;;5048519;28;20213;-52
2022/03/27 12:07:22;;;;;;;11.48;9.57;;;17.30;99.90;;;;;;5051010;28;20213;-52
2022/03/27 12:09:58;;;;;;;12.95;9.93;;;17.30;99.90;;;;;;5051487;28;20213;-52
2022/03/27 12:12:28;;;;;;;11.90;10.13;;;17.30;99.90;;;;;;5051240;28;20262;-53
2022/03/27 12:14:58;;;;;;;11.88;10.57;;;17.30;99.90;;;;;;5051003;28;20206;-52
2022/03/27 12:17:31;;;;;;;12.93;10.35;;;17.20;99.90;;;;;;5051457;28;20232;-51
2022/03/27 12:20:02;;;;;;;12.55;10.52;;;17.30;99.90;;;;;;5050097;28;20243;-53
2022/03/27 12:22:35;;;;;;;12.13;10.73;;;17.20;99.90;;;;;;5051474;28;20206;-52
2022/03/27 12:25:10;;;;;;;11.45;10.00;;;17.20;99.90;;;;;;5043419;28;20683;-52
2022/03/27 12:30:35;;;;;;;10.82;9.70;;;17.20;99.90;;;;;;5050394;28;20631;-53
2022/03/27 12:33:04;;;;;;;11.70;9.68;;;17.10;99.90;;;;;;5050636;28;20245;-52
2022/03/27 12:35:33;;;;;;;12.63;9.23;;;17.20;99.90;;;;;;5049514;28;20274;-52
2022/03/27 12:38:01;;;;;;;9.73;8.73;;;17.10;99.90;;;;;;5050690;28;20287;-52
2022/03/27 12:40:42;;;;;;;11.05;9.07;;;17.20;99.90;;;;;;5050858;28;20214;-52
2022/03/27 12:43:12;;;;;;;10.80;9.52;;;17.20;99.90;;;;;;5050383;28;20247;-52
2022/03/27 12:45:41;;;;;;;12.10;8.93;;;17.20;99.90;;;;;;5050603;28;20209;-52
2022/03/27 12:48:17;;;;;;;9.50;8.48;;;17.30;99.90;;;;;;5050962;28;20283;-52
2022/03/27 12:50:47;;;;;;;10.57;9.38;;;17.20;99.90;;;;;;5049890;28;20626;-52
2022/03/27 12:53:26;;;;;;;10.55;8.65;;;17.20;99.90;;;;;;5050303;28;20213;-51
2022/03/27 12:55:57;;;;;;;10.57;9.48;;;17.20;99.90;;;;;;5050231;28;20197;-52
2022/03/27 12:58:37;;;;;;;10.68;9.10;;;17.30;99.90;;;;;;5050773;28;20307;-52
2022/03/27 13:01:07;;;;;;;9.68;8.45;;;17.40;99.90;;;;;;5050299;28;20255;-52